createdAt,value
2018-07-21T00:01:47.229Z,100223.97
2018-07-21T00:06:51.757Z,100218.92
2018-07-21T00:11:55.240Z,100216.73
2018-07-21T00:16:58.795Z,100227.41
2018-07-21T00:22:02.295Z,100208.74
2018-07-21T00:27:06.826Z,100211.13
2018-07-21T00:32:10.337Z,100206.53
2018-07-21T00:37:13.905Z,100193.28
2018-07-21T00:42:17.425Z,100177.58
2018-07-21T00:47:21.003Z,100177.84
2018-07-21T00:52:24.517Z,100174.27
2018-07-21T00:57:28.968Z,100167.95
2018-07-21T01:02:32.487Z,100153.06
2018-07-21T01:07:36.086Z,100149.27
2018-07-21T01:12:39.634Z,100143.03
2018-07-21T01:17:44.361Z,100141.04
2018-07-21T01:22:47.901Z,100138.09
2018-07-21T01:27:52.369Z,100142.50
2018-07-21T01:32:55.865Z,100146.77
2018-07-21T01:37:59.419Z,100149.69
2018-07-21T01:43:02.931Z,100146.66
2018-07-21T01:48:07.140Z,100154.20
2018-07-21T01:53:10.615Z,100151.19
2018-07-21T01:58:14.655Z,100157.22
2018-07-21T02:03:18.202Z,100150.12
2018-07-21T02:08:21.765Z,100148.88
2018-07-21T02:13:25.307Z,100156.58
2018-07-21T02:18:28.857Z,100153.92
2018-07-21T02:23:32.485Z,100164.16
2018-07-21T02:28:36.581Z,100172.77
2018-07-21T02:33:40.090Z,100173.41
2018-07-21T02:38:43.669Z,100175.58
2018-07-21T02:43:47.148Z,100169.06
2018-07-21T02:48:50.708Z,100167.27
2018-07-21T02:53:54.698Z,100164.25
2018-07-21T02:58:58.848Z,100165.38
2018-07-21T03:04:02.370Z,100152.13
2018-07-21T03:09:08.771Z,100166.11
2018-07-21T03:14:12.252Z,100156.68
2018-07-21T03:19:16.649Z,100162.70
2018-07-21T03:24:20.204Z,100151.64
2018-07-21T03:29:23.760Z,100146.70
2018-07-21T03:34:27.653Z,100143.38
2018-07-21T03:39:31.168Z,100140.36
2018-07-21T03:44:34.690Z,100143.94
2018-07-21T03:49:38.227Z,100143.00
2018-07-21T03:54:41.697Z,100159.84
2018-07-21T03:59:45.261Z,100145.64
2018-07-21T04:04:48.745Z,100156.19
2018-07-21T04:09:53.363Z,100155.68
2018-07-21T04:14:56.885Z,100160.86
2018-07-21T04:20:01.584Z,100157.01
2018-07-21T04:25:05.557Z,100153.61
2018-07-21T04:30:09.131Z,100147.98
2018-07-21T04:35:12.634Z,100151.61
2018-07-21T04:40:16.645Z,100152.02
2018-07-21T04:45:20.207Z,100147.06
2018-07-21T04:50:23.787Z,100144.53
2018-07-21T04:55:27.373Z,100158.78
2018-07-21T05:00:33.896Z,100164.55
2018-07-21T05:05:37.380Z,100166.18
2018-07-21T05:10:40.942Z,100169.31
2018-07-21T05:15:44.584Z,100168.36
2018-07-21T05:20:48.205Z,100165.52
2018-07-21T05:25:52.328Z,100166.52
2018-07-21T05:30:55.913Z,100167.53
2018-07-21T05:35:59.596Z,100175.68
2018-07-21T05:41:03.218Z,100174.56
2018-07-21T05:46:07.021Z,100180.71
2018-07-21T05:51:11.159Z,100180.88
2018-07-21T05:56:14.672Z,100181.83
2018-07-21T06:01:19.374Z,100184.69
2018-07-21T06:06:23.045Z,100188.28
2018-07-21T06:11:26.600Z,100192.80
2018-07-21T06:16:30.155Z,100202.66
2018-07-21T06:21:33.700Z,100213.45
2018-07-21T06:26:37.289Z,100220.48
2018-07-21T06:31:41.269Z,100220.50
2018-07-21T06:36:44.845Z,100228.45
2018-07-21T06:41:48.422Z,100231.66
2018-07-21T06:46:51.917Z,100236.28
2018-07-21T06:51:55.470Z,100243.52
2018-07-21T06:56:59.039Z,100254.37
2018-07-21T07:02:02.659Z,100254.75
2018-07-21T07:07:06.749Z,100261.11
2018-07-21T07:12:10.369Z,100273.34
2018-07-21T07:17:14.324Z,100261.77
2018-07-21T07:22:17.865Z,100269.22
2018-07-21T07:27:21.540Z,100281.25
2018-07-21T07:32:25.907Z,100278.97
2018-07-21T07:37:29.846Z,100269.92
2018-07-21T07:42:33.565Z,100275.88
2018-07-21T07:47:37.111Z,100281.53
2018-07-21T07:52:40.799Z,100281.02
2018-07-21T07:57:44.272Z,100274.87
2018-07-21T08:02:48.661Z,100271.30
2018-07-21T08:07:53.549Z,100265.10
2018-07-21T08:12:57.114Z,100273.20
2018-07-21T08:18:00.718Z,100271.60
2018-07-21T08:23:04.386Z,100267.71
2018-07-21T08:28:07.926Z,100271.16
2018-07-21T08:33:11.487Z,100261.88
2018-07-21T08:38:15.040Z,100263.52
2018-07-21T08:43:18.572Z,100257.51
2018-07-21T08:48:24.078Z,100262.04
2018-07-21T08:53:27.672Z,100263.91
2018-07-21T08:58:31.220Z,100270.91
2018-07-21T09:03:35.402Z,100260.33
2018-07-21T09:08:38.867Z,100248.55
2018-07-21T09:13:42.530Z,100252.80
2018-07-21T09:18:46.660Z,100254.39
2018-07-21T09:23:51.303Z,100250.98
2018-07-21T09:28:55.136Z,100255.00
2018-07-21T09:33:58.666Z,100252.61
2018-07-21T09:39:02.241Z,100253.31
2018-07-21T09:44:06.629Z,100259.22
2018-07-21T09:49:10.165Z,100258.38
2018-07-21T09:54:13.656Z,100267.48
2018-07-21T09:59:17.131Z,100256.58
2018-07-21T10:04:20.790Z,100261.28
2018-07-21T10:09:24.333Z,100265.86
2018-07-21T10:14:28.573Z,100262.83
2018-07-21T10:19:32.247Z,100271.53
2018-07-21T10:24:41.985Z,100272.68
2018-07-21T10:29:45.543Z,100282.91
2018-07-21T10:34:49.070Z,100280.13
2018-07-21T10:39:52.822Z,100279.58
2018-07-21T10:44:56.401Z,100283.94
2018-07-21T10:50:00.158Z,100284.30
2018-07-21T10:55:03.730Z,100273.67
2018-07-21T11:00:15.131Z,100278.72
2018-07-21T11:05:18.985Z,100268.28
2018-07-21T11:10:22.476Z,100266.75
2018-07-21T11:15:27.289Z,100268.91
2018-07-21T11:20:34.666Z,100267.95
2018-07-21T11:25:38.352Z,100262.94
2018-07-21T11:30:41.880Z,100272.76
2018-07-21T11:35:45.799Z,100288.52
2018-07-21T11:40:49.158Z,100273.80
2018-07-21T11:45:52.671Z,100280.84
2018-07-21T11:50:56.132Z,100278.25
2018-07-21T11:55:59.650Z,100280.55
2018-07-21T12:01:03.119Z,100278.45
2018-07-21T12:06:07.511Z,100277.86
2018-07-21T12:11:11.880Z,100272.09
2018-07-21T12:16:15.560Z,100272.82
2018-07-21T12:21:19.030Z,100270.69
2018-07-21T12:26:22.617Z,100270.53
2018-07-21T12:31:26.077Z,100260.02
2018-07-21T12:36:29.620Z,100261.83
2018-07-21T12:41:34.533Z,100266.39
2018-07-21T12:46:38.128Z,100261.31
2018-07-21T12:51:41.652Z,100260.44
2018-07-21T12:56:46.025Z,100265.73
2018-07-21T13:01:49.542Z,100268.33
2018-07-21T13:06:53.553Z,100264.12
2018-07-21T13:11:57.094Z,100272.09
2018-07-21T13:17:00.602Z,100275.04
2018-07-21T13:22:04.132Z,100271.95
2018-07-21T13:27:07.770Z,100267.30
2018-07-21T13:32:11.310Z,100267.94
2018-07-21T13:37:14.860Z,100271.33
2018-07-21T13:42:18.350Z,100264.74
2018-07-21T13:47:22.499Z,100267.70
2018-07-21T13:52:25.987Z,100267.25
2018-07-21T13:57:29.519Z,100273.48
2018-07-21T14:02:32.985Z,100265.71
2018-07-21T14:07:39.738Z,100272.84
2018-07-21T14:12:43.209Z,100267.41
2018-07-21T14:17:47.709Z,100267.69
2018-07-21T14:22:51.223Z,100256.48
2018-07-21T14:27:55.031Z,100258.55
2018-07-21T14:32:58.711Z,100259.75
2018-07-21T14:38:02.251Z,100259.20
2018-07-21T14:43:06.030Z,100253.39
2018-07-21T14:48:09.886Z,100254.54
2018-07-21T14:53:13.489Z,100259.56
2018-07-21T14:58:18.027Z,100258.47
2018-07-21T15:03:21.491Z,100258.08
2018-07-21T15:08:25.096Z,100257.16
2018-07-21T15:13:28.776Z,100253.45
2018-07-21T15:18:33.191Z,100249.59
2018-07-21T15:23:36.749Z,100254.33
2018-07-21T15:28:40.327Z,100251.42
2018-07-21T15:33:43.910Z,100247.79
2018-07-21T15:38:47.478Z,100254.97
2018-07-21T15:43:54.766Z,100245.52
2018-07-21T15:48:58.309Z,100253.80
2018-07-21T15:54:01.885Z,100252.52
2018-07-21T15:59:08.045Z,100257.09
2018-07-21T16:04:12.690Z,100256.15
2018-07-21T16:09:17.575Z,100261.44
2018-07-21T16:14:21.358Z,100260.19
2018-07-21T16:19:24.902Z,100256.78
2018-07-21T16:24:28.384Z,100256.27
2018-07-21T16:29:31.922Z,100269.73
2018-07-21T16:34:35.449Z,100270.01
2018-07-21T16:39:39.223Z,100271.59
2018-07-21T16:44:44.139Z,100270.23
2018-07-21T16:49:48.144Z,100273.92
2018-07-21T16:54:51.681Z,100269.22
2018-07-21T16:59:56.284Z,100265.33
2018-07-21T17:04:59.856Z,100258.61
2018-07-21T17:10:04.288Z,100251.38
2018-07-21T17:15:08.933Z,100257.81
2018-07-21T17:20:12.570Z,100259.02
2018-07-21T17:25:17.443Z,100251.16
2018-07-21T17:30:27.484Z,100248.86
2018-07-21T17:35:30.958Z,100245.45
2018-07-21T17:40:34.520Z,100246.25
2018-07-21T17:45:38.741Z,100241.35
2018-07-21T17:50:43.268Z,100242.47
2018-07-21T17:55:47.643Z,100232.29
2018-07-21T18:00:52.159Z,100230.63
2018-07-21T18:05:56.631Z,100227.59
2018-07-21T18:11:01.402Z,100233.83
2018-07-21T18:16:05.668Z,100245.30
2018-07-21T18:21:09.899Z,100238.73
2018-07-21T18:26:14.379Z,100246.52
2018-07-21T18:31:19.098Z,100247.33
2018-07-21T18:36:22.676Z,100242.72
2018-07-21T18:41:28.513Z,100250.03
2018-07-21T18:46:32.918Z,100248.48
2018-07-21T18:51:37.463Z,100240.47
2018-07-21T18:56:41.983Z,100246.53
2018-07-21T19:01:48.277Z,100246.41
2018-07-21T19:06:53.001Z,100249.41
2018-07-21T19:12:02.514Z,100244.90
2018-07-21T19:17:07.346Z,100252.92
2018-07-21T19:22:13.207Z,100261.02
2018-07-21T19:27:23.537Z,100262.99
2018-07-21T19:32:33.423Z,100264.00
2018-07-21T19:37:42.435Z,100269.36
2018-07-21T19:42:47.477Z,100278.47
2018-07-21T19:47:51.610Z,100290.44
2018-07-21T19:52:55.592Z,100295.83
2018-07-21T19:57:59.405Z,100299.23
2018-07-21T20:03:03.608Z,100307.05
2018-07-21T20:08:07.379Z,100312.20
2018-07-21T20:13:11.785Z,100315.41
2018-07-21T20:18:16.382Z,100316.20
2018-07-21T20:23:21.448Z,100322.34
2018-07-21T20:28:25.844Z,100314.16
2018-07-21T20:33:30.390Z,100321.87
2018-07-21T20:38:35.593Z,100315.37
2018-07-21T20:43:40.094Z,100327.81
2018-07-21T20:48:44.748Z,100323.34
2018-07-21T20:53:50.116Z,100329.28
2018-07-21T20:58:53.969Z,100333.84
2018-07-21T21:03:58.321Z,100334.88
2018-07-21T21:09:02.519Z,100333.95
2018-07-21T21:14:07.230Z,100337.98
2018-07-21T21:19:12.864Z,100334.98
2018-07-21T21:24:18.635Z,100336.49
2018-07-21T21:29:22.227Z,100335.91
2018-07-21T21:34:25.806Z,100330.83
2018-07-21T21:39:30.239Z,100325.61
2018-07-21T21:44:35.256Z,100322.39
2018-07-21T21:49:38.911Z,100325.06
2018-07-21T21:54:43.121Z,100337.00
2018-07-21T21:59:46.709Z,100334.52
2018-07-21T22:04:51.258Z,100330.92
2018-07-21T22:09:54.814Z,100330.92
2018-07-21T22:14:58.299Z,100328.61
2018-07-21T22:20:03.205Z,100336.55
2018-07-21T22:25:06.788Z,100334.01
2018-07-21T22:30:28.581Z,100336.56
2018-07-21T22:35:32.591Z,100332.05
2018-07-21T22:40:36.162Z,100343.53
2018-07-21T22:45:40.202Z,100342.93
2018-07-21T22:50:43.819Z,100350.44
2018-07-21T22:55:47.797Z,100344.83
2018-07-21T23:00:51.608Z,100348.98
2018-07-21T23:05:55.109Z,100350.66
2018-07-21T23:10:59.482Z,100356.59
2018-07-21T23:16:03.072Z,100353.62
2018-07-21T23:21:06.630Z,100356.91
2018-07-21T23:26:10.150Z,100362.61
2018-07-21T23:31:13.766Z,100356.78
2018-07-21T23:36:17.265Z,100348.26
2018-07-21T23:41:20.808Z,100355.09
2018-07-21T23:46:24.328Z,100355.47
2018-07-21T23:51:28.392Z,100356.86
2018-07-21T23:56:31.982Z,100357.34
